sensor_id;sensor_type;location;lat;lon;timestamp;pressure;altitude;pressure_sealevel;temperature;humidity
40788;BME280;26497;52.494;7.546;2022-08-19T00:00:38;100731.22;;;21.83;68.69
40788;BME280;26497;52.494;7.546;2022-08-19T00:03:05;100729.66;;;21.77;69.19
40788;BME280;26497;52.494;7.546;2022-08-19T00:05:32;100737.16;;;21.70;69.28
40788;BME280;26497;52.494;7.546;2022-08-19T00:07:59;100738.13;;;21.68;69.08
40788;BME280;26497;52.494;7.546;2022-08-19T00:10:27;100730.09;;;21.68;69.42
40788;BME280;26497;52.494;7.546;2022-08-19T00:12:54;100735.44;;;21.68;69.22
40788;BME280;26497;52.494;7.546;2022-08-19T00:15:22;100732.72;;;21.69;69.57
40788;BME280;26497;52.494;7.546;2022-08-19T00:17:49;100738.22;;;21.66;69.62
40788;BME280;26497;52.494;7.546;2022-08-19T00:20:19;100740.50;;;21.55;69.95
40788;BME280;26497;52.494;7.546;2022-08-19T00:22:46;100735.53;;;21.66;69.31
40788;BME280;26497;52.494;7.546;2022-08-19T00:25:14;100733.03;;;21.61;69.59
40788;BME280;26497;52.494;7.546;2022-08-19T00:27:42;100734.59;;;21.67;69.27
40788;BME280;26497;52.494;7.546;2022-08-19T00:30:10;100729.44;;;21.62;69.58
40788;BME280;26497;52.494;7.546;2022-08-19T00:32:37;100738.88;;;21.50;70.39
40788;BME280;26497;52.494;7.546;2022-08-19T00:35:05;100736.59;;;21.62;69.44
40788;BME280;26497;52.494;7.546;2022-08-19T00:37:32;100730.31;;;21.63;69.49
40788;BME280;26497;52.494;7.546;2022-08-19T00:40:01;100725.91;;;21.60;69.17
40788;BME280;26497;52.494;7.546;2022-08-19T00:42:29;100722.41;;;21.58;68.92
40788;BME280;26497;52.494;7.546;2022-08-19T00:44:57;100715.16;;;21.41;69.71
40788;BME280;26497;52.494;7.546;2022-08-19T00:47:24;100725.78;;;21.43;69.87
40788;BME280;26497;52.494;7.546;2022-08-19T00:49:52;100715.28;;;21.38;69.56
40788;BME280;26497;52.494;7.546;2022-08-19T00:52:23;100721.69;;;21.15;70.46
40788;BME280;26497;52.494;7.546;2022-08-19T00:54:50;100725.75;;;21.03;70.81
40788;BME280;26497;52.494;7.546;2022-08-19T00:57:22;100720.41;;;21.03;70.42
40788;BME280;26497;52.494;7.546;2022-08-19T00:59:51;100715.28;;;20.97;71.07
40788;BME280;26497;52.494;7.546;2022-08-19T01:02:20;100717.31;;;21.12;70.46
40788;BME280;26497;52.494;7.546;2022-08-19T01:04:47;100711.00;;;21.13;70.24
40788;BME280;26497;52.494;7.546;2022-08-19T01:07:14;100709.81;;;21.00;70.57
40788;BME280;26497;52.494;7.546;2022-08-19T01:09:40;100715.69;;;20.87;71.14
40788;BME280;26497;52.494;7.546;2022-08-19T01:12:07;100716.97;;;20.79;71.43
40788;BME280;26497;52.494;7.546;2022-08-19T01:14:34;100707.34;;;20.73;71.51
40788;BME280;26497;52.494;7.546;2022-08-19T01:17:03;100703.03;;;20.69;71.22
40788;BME280;26497;52.494;7.546;2022-08-19T01:19:39;100687.16;;;20.64;71.27
40788;BME280;26497;52.494;7.546;2022-08-19T01:22:10;100690.53;;;20.69;71.26
40788;BME280;26497;52.494;7.546;2022-08-19T01:24:40;100687.16;;;20.86;69.83
40788;BME280;26497;52.494;7.546;2022-08-19T01:27:07;100688.84;;;20.67;70.78
40788;BME280;26497;52.494;7.546;2022-08-19T01:29:36;100688.56;;;20.52;71.50
40788;BME280;26497;52.494;7.546;2022-08-19T01:32:04;100691.91;;;20.57;71.30
40788;BME280;26497;52.494;7.546;2022-08-19T01:34:31;100695.81;;;20.50;71.30
40788;BME280;26497;52.494;7.546;2022-08-19T01:36:59;100699.53;;;20.46;71.62
40788;BME280;26497;52.494;7.546;2022-08-19T01:39:27;100699.78;;;20.40;71.66
40788;BME280;26497;52.494;7.546;2022-08-19T01:41:56;100701.03;;;20.53;71.35
40788;BME280;26497;52.494;7.546;2022-08-19T01:44:23;100690.97;;;20.58;71.03
40788;BME280;26497;52.494;7.546;2022-08-19T01:46:51;100690.31;;;20.53;70.92
40788;BME280;26497;52.494;7.546;2022-08-19T01:49:20;100689.69;;;20.46;71.00
40788;BME280;26497;52.494;7.546;2022-08-19T01:51:48;100688.66;;;20.28;71.76
40788;BME280;26497;52.494;7.546;2022-08-19T01:54:17;100694.38;;;20.19;72.13
40788;BME280;26497;52.494;7.546;2022-08-19T01:56:44;100678.44;;;20.16;72.36
40788;BME280;26497;52.494;7.546;2022-08-19T01:59:14;100694.38;;;20.19;71.47
40788;BME280;26497;52.494;7.546;2022-08-19T02:01:42;100695.47;;;20.13;71.73
40788;BME280;26497;52.494;7.546;2022-08-19T02:04:09;100690.19;;;20.12;71.52
40788;BME280;26497;52.494;7.546;2022-08-19T02:06:36;100696.59;;;20.08;71.48
40788;BME280;26497;52.494;7.546;2022-08-19T02:09:05;100686.81;;;20.07;71.85
40788;BME280;26497;52.494;7.546;2022-08-19T02:11:35;100680.78;;;20.01;71.97
40788;BME280;26497;52.494;7.546;2022-08-19T02:14:05;100674.50;;;20.02;72.40
40788;BME280;26497;52.494;7.546;2022-08-19T02:16:34;100672.63;;;20.04;72.61
40788;BME280;26497;52.494;7.546;2022-08-19T02:19:01;100670.53;;;20.13;72.37
40788;BME280;26497;52.494;7.546;2022-08-19T02:21:29;100664.03;;;20.18;72.25
40788;BME280;26497;52.494;7.546;2022-08-19T02:23:56;100672.38;;;20.11;72.27
40788;BME280;26497;52.494;7.546;2022-08-19T02:26:23;100677.91;;;20.06;72.22
40788;BME280;26497;52.494;7.546;2022-08-19T02:28:52;100680.34;;;20.12;72.09
40788;BME280;26497;52.494;7.546;2022-08-19T02:31:21;100683.41;;;20.25;71.16
40788;BME280;26497;52.494;7.546;2022-08-19T02:33:49;100694.94;;;20.27;70.23
40788;BME280;26497;52.494;7.546;2022-08-19T02:36:18;100689.06;;;20.17;70.32
40788;BME280;26497;52.494;7.546;2022-08-19T02:38:45;100680.41;;;20.11;70.17
40788;BME280;26497;52.494;7.546;2022-08-19T02:41:13;100685.94;;;20.06;70.41
40788;BME280;26497;52.494;7.546;2022-08-19T02:43:40;100681.16;;;19.92;70.65
40788;BME280;26497;52.494;7.546;2022-08-19T02:46:15;100684.16;;;19.83;71.35
40788;BME280;26497;52.494;7.546;2022-08-19T02:48:43;100687.59;;;19.86;71.63
40788;BME280;26497;52.494;7.546;2022-08-19T02:51:17;100680.22;;;19.93;71.29
40788;BME280;26497;52.494;7.546;2022-08-19T02:53:44;100686.53;;;19.91;71.28
40788;BME280;26497;52.494;7.546;2022-08-19T02:56:11;100690.28;;;19.86;71.39
40788;BME280;26497;52.494;7.546;2022-08-19T02:58:38;100689.28;;;19.89;71.30
40788;BME280;26497;52.494;7.546;2022-08-19T03:01:05;100692.59;;;19.96;71.38
40788;BME280;26497;52.494;7.546;2022-08-19T03:03:32;100688.16;;;19.95;71.19
40788;BME280;26497;52.494;7.546;2022-08-19T03:06:04;100688.53;;;19.85;71.69
40788;BME280;26497;52.494;7.546;2022-08-19T03:08:33;100694.53;;;19.92;71.56
40788;BME280;26497;52.494;7.546;2022-08-19T03:11:00;100698.13;;;19.91;71.62
40788;BME280;26497;52.494;7.546;2022-08-19T03:13:26;100698.34;;;19.85;71.81
40788;BME280;26497;52.494;7.546;2022-08-19T03:15:53;100685.69;;;19.90;71.28
40788;BME280;26497;52.494;7.546;2022-08-19T03:18:20;100687.31;;;19.94;70.74
40788;BME280;26497;52.494;7.546;2022-08-19T03:20:48;100691.97;;;19.89;71.00
40788;BME280;26497;52.494;7.546;2022-08-19T03:23:16;100686.88;;;20.05;69.71
40788;BME280;26497;52.494;7.546;2022-08-19T03:25:46;100679.72;;;20.06;69.08
40788;BME280;26497;52.494;7.546;2022-08-19T03:28:14;100670.56;;;19.89;69.78
40788;BME280;26497;52.494;7.546;2022-08-19T03:30:42;100661.22;;;19.75;69.95
40788;BME280;26497;52.494;7.546;2022-08-19T03:33:10;100665.78;;;19.73;69.81
40788;BME280;26497;52.494;7.546;2022-08-19T03:35:38;100663.28;;;19.69;69.87
40788;BME280;26497;52.494;7.546;2022-08-19T03:38:05;100668.06;;;19.60;70.29
40788;BME280;26497;52.494;7.546;2022-08-19T03:40:35;100664.44;;;19.62;70.32
40788;BME280;26497;52.494;7.546;2022-08-19T03:43:04;100651.88;;;19.64;70.30
40788;BME280;26497;52.494;7.546;2022-08-19T03:45:31;100656.31;;;19.65;70.23
40788;BME280;26497;52.494;7.546;2022-08-19T03:47:58;100655.41;;;19.64;70.75
40788;BME280;26497;52.494;7.546;2022-08-19T03:50:25;100645.72;;;19.62;70.87
40788;BME280;26497;52.494;7.546;2022-08-19T03:52:52;100653.56;;;19.66;70.93
40788;BME280;26497;52.494;7.546;2022-08-19T03:55:19;100652.75;;;19.64;70.86
40788;BME280;26497;52.494;7.546;2022-08-19T03:57:46;100655.53;;;19.61;71.38
40788;BME280;26497;52.494;7.546;2022-08-19T04:00:15;100663.44;;;19.64;71.14
40788;BME280;26497;52.494;7.546;2022-08-19T04:02:43;100666.13;;;19.64;71.30
40788;BME280;26497;52.494;7.546;2022-08-19T04:05:10;100659.81;;;19.67;71.39
40788;BME280;26497;52.494;7.546;2022-08-19T04:07:38;100664.16;;;19.69;71.37
40788;BME280;26497;52.494;7.546;2022-08-19T04:10:05;100674.72;;;19.72;71.41
40788;BME280;26497;52.494;7.546;2022-08-19T04:12:32;100670.31;;;19.71;71.27
40788;BME280;26497;52.494;7.546;2022-08-19T04:14:58;100666.69;;;19.72;71.69
40788;BME280;26497;52.494;7.546;2022-08-19T04:17:27;100674.69;;;19.74;71.69
40788;BME280;26497;52.494;7.546;2022-08-19T04:19:53;100661.06;;;19.80;71.47
40788;BME280;26497;52.494;7.546;2022-08-19T04:22:20;100657.59;;;19.78;71.51
40788;BME280;26497;52.494;7.546;2022-08-19T04:24:47;100668.44;;;19.73;71.84
40788;BME280;26497;52.494;7.546;2022-08-19T04:27:14;100667.50;;;19.74;71.79
40788;BME280;26497;52.494;7.546;2022-08-19T04:29:41;100660.38;;;19.75;72.05
40788;BME280;26497;52.494;7.546;2022-08-19T04:32:08;100658.31;;;19.82;71.91
40788;BME280;26497;52.494;7.546;2022-08-19T04:34:37;100668.97;;;19.83;72.00
40788;BME280;26497;52.494;7.546;2022-08-19T04:37:05;100672.38;;;19.87;71.81
40788;BME280;26497;52.494;7.546;2022-08-19T04:39:37;100676.66;;;19.93;71.98
40788;BME280;26497;52.494;7.546;2022-08-19T04:42:22;100681.34;;;20.10;71.95
40788;BME280;26497;52.494;7.546;2022-08-19T04:45:08;100678.47;;;20.14;71.96
40788;BME280;26497;52.494;7.546;2022-08-19T04:47:36;100693.69;;;20.14;72.08
40788;BME280;26497;52.494;7.546;2022-08-19T04:50:05;100678.56;;;20.13;72.12
40788;BME280;26497;52.494;7.546;2022-08-19T04:52:32;100679.28;;;20.16;72.02
40788;BME280;26497;52.494;7.546;2022-08-19T04:54:59;100679.47;;;20.12;72.34
40788;BME280;26497;52.494;7.546;2022-08-19T04:57:26;100688.31;;;20.14;72.55
40788;BME280;26497;52.494;7.546;2022-08-19T04:59:53;100691.00;;;20.14;73.07
40788;BME280;26497;52.494;7.546;2022-08-19T05:02:20;100696.69;;;20.28;72.76
40788;BME280;26497;52.494;7.546;2022-08-19T05:04:50;100701.41;;;20.44;72.52
40788;BME280;26497;52.494;7.546;2022-08-19T05:07:18;100704.78;;;20.49;72.86
40788;BME280;26497;52.494;7.546;2022-08-19T05:09:45;100713.31;;;20.57;73.09
40788;BME280;26497;52.494;7.546;2022-08-19T05:12:11;100700.31;;;20.70;72.76
40788;BME280;26497;52.494;7.546;2022-08-19T05:14:38;100706.72;;;20.88;72.85
40788;BME280;26497;52.494;7.546;2022-08-19T05:17:05;100700.97;;;20.98;73.15
40788;BME280;26497;52.494;7.546;2022-08-19T05:19:32;100710.88;;;21.16;72.68
40788;BME280;26497;52.494;7.546;2022-08-19T05:22:17;100710.34;;;21.29;71.98
40788;BME280;26497;52.494;7.546;2022-08-19T05:25:04;100707.66;;;21.29;71.73
40788;BME280;26497;52.494;7.546;2022-08-19T05:27:32;100706.72;;;21.30;71.70
40788;BME280;26497;52.494;7.546;2022-08-19T05:29:59;100703.00;;;21.32;71.49
40788;BME280;26497;52.494;7.546;2022-08-19T05:32:27;100699.47;;;21.32;72.02
40788;BME280;26497;52.494;7.546;2022-08-19T05:34:54;100708.34;;;21.53;72.19
40788;BME280;26497;52.494;7.546;2022-08-19T05:37:22;100709.56;;;21.67;72.40
40788;BME280;26497;52.494;7.546;2022-08-19T05:39:52;100706.44;;;21.95;72.79
40788;BME280;26497;52.494;7.546;2022-08-19T05:42:20;100695.56;;;22.17;72.64
40788;BME280;26497;52.494;7.546;2022-08-19T05:44:48;100692.69;;;22.39;72.40
40788;BME280;26497;52.494;7.546;2022-08-19T05:47:15;100692.44;;;22.63;72.26
40788;BME280;26497;52.494;7.546;2022-08-19T05:49:44;100697.34;;;22.90;72.69
40788;BME280;26497;52.494;7.546;2022-08-19T05:52:12;100708.38;;;23.19;72.23
40788;BME280;26497;52.494;7.546;2022-08-19T05:54:42;100705.47;;;23.41;72.09
40788;BME280;26497;52.494;7.546;2022-08-19T05:57:10;100690.13;;;23.60;71.56
40788;BME280;26497;52.494;7.546;2022-08-19T05:59:37;100681.81;;;23.80;71.34
40788;BME280;26497;52.494;7.546;2022-08-19T06:02:05;100682.44;;;24.02;69.51
40788;BME280;26497;52.494;7.546;2022-08-19T06:04:33;100685.75;;;24.23;68.74
40788;BME280;26497;52.494;7.546;2022-08-19T06:07:00;100685.84;;;24.37;67.05
40788;BME280;26497;52.494;7.546;2022-08-19T06:09:27;100688.38;;;24.55;67.37
40788;BME280;26497;52.494;7.546;2022-08-19T06:11:56;100682.22;;;24.53;64.51
40788;BME280;26497;52.494;7.546;2022-08-19T06:14:27;100675.88;;;24.54;64.64
40788;BME280;26497;52.494;7.546;2022-08-19T06:16:54;100678.13;;;24.92;64.62
40788;BME280;26497;52.494;7.546;2022-08-19T06:19:22;100682.13;;;25.15;62.90
40788;BME280;26497;52.494;7.546;2022-08-19T06:21:50;100679.53;;;25.43;63.72
40788;BME280;26497;52.494;7.546;2022-08-19T06:24:19;100669.53;;;25.59;62.87
40788;BME280;26497;52.494;7.546;2022-08-19T06:26:49;100669.63;;;26.00;63.45
40788;BME280;26497;52.494;7.546;2022-08-19T06:29:21;100667.00;;;26.13;59.95
40788;BME280;26497;52.494;7.546;2022-08-19T06:31:51;100670.84;;;26.50;66.19
40788;BME280;26497;52.494;7.546;2022-08-19T06:34:18;100673.13;;;27.10;72.19
40788;BME280;26497;52.494;7.546;2022-08-19T06:36:47;100674.97;;;27.35;55.43
40788;BME280;26497;52.494;7.546;2022-08-19T06:39:16;100679.06;;;28.42;60.13
40788;BME280;26497;52.494;7.546;2022-08-19T06:41:45;100679.13;;;28.89;48.87
40788;BME280;26497;52.494;7.546;2022-08-19T06:44:13;100672.03;;;30.01;48.20
40788;BME280;26497;52.494;7.546;2022-08-19T06:46:41;100668.03;;;30.82;42.26
40788;BME280;26497;52.494;7.546;2022-08-19T06:49:09;100666.78;;;31.70;40.32
40788;BME280;26497;52.494;7.546;2022-08-19T06:51:39;100664.88;;;33.00;39.24
40788;BME280;26497;52.494;7.546;2022-08-19T06:54:06;100663.56;;;34.44;35.99
40788;BME280;26497;52.494;7.546;2022-08-19T06:56:33;100662.75;;;35.14;33.08
40788;BME280;26497;52.494;7.546;2022-08-19T07:02:23;100668.63;;;35.97;31.47
40788;BME280;26497;52.494;7.546;2022-08-19T07:04:51;100653.34;;;35.94;31.29
40788;BME280;26497;52.494;7.546;2022-08-19T07:07:19;100659.50;;;35.45;31.09
40788;BME280;26497;52.494;7.546;2022-08-19T07:09:46;100655.91;;;35.45;31.74
40788;BME280;26497;52.494;7.546;2022-08-19T07:12:14;100664.63;;;35.83;31.27
40788;BME280;26497;52.494;7.546;2022-08-19T07:14:41;100657.94;;;36.53;30.06
40788;BME280;26497;52.494;7.546;2022-08-19T07:17:10;100656.31;;;37.25;29.70
40788;BME280;26497;52.494;7.546;2022-08-19T07:19:40;100650.19;;;37.86;28.42
40788;BME280;26497;52.494;7.546;2022-08-19T07:22:10;100635.09;;;37.82;27.60
40788;BME280;26497;52.494;7.546;2022-08-19T07:24:37;100641.66;;;37.33;28.73
40788;BME280;26497;52.494;7.546;2022-08-19T07:27:05;100636.75;;;37.60;28.60
40788;BME280;26497;52.494;7.546;2022-08-19T07:29:34;100647.22;;;38.04;27.52
40788;BME280;26497;52.494;7.546;2022-08-19T07:32:02;100643.56;;;38.04;27.33
40788;BME280;26497;52.494;7.546;2022-08-19T07:34:30;100649.09;;;38.04;27.90
40788;BME280;26497;52.494;7.546;2022-08-19T07:37:04;100651.88;;;37.96;27.87
40788;BME280;26497;52.494;7.546;2022-08-19T07:39:33;100663.38;;;37.68;28.08
40788;BME280;26497;52.494;7.546;2022-08-19T07:42:04;100665.38;;;38.37;27.71
40788;BME280;26497;52.494;7.546;2022-08-19T07:44:31;100663.56;;;38.91;27.02
40788;BME280;26497;52.494;7.546;2022-08-19T07:46:59;100667.13;;;39.45;25.71
40788;BME280;26497;52.494;7.546;2022-08-19T07:49:26;100675.16;;;39.31;26.58
40788;BME280;26497;52.494;7.546;2022-08-19T07:51:55;100663.69;;;39.43;25.73
40788;BME280;26497;52.494;7.546;2022-08-19T07:54:25;100667.13;;;39.45;26.17
40788;BME280;26497;52.494;7.546;2022-08-19T07:56:53;100667.47;;;39.72;25.61
40788;BME280;26497;52.494;7.546;2022-08-19T07:59:20;100683.75;;;39.06;26.12
40788;BME280;26497;52.494;7.546;2022-08-19T08:01:47;100686.84;;;38.88;26.41
40788;BME280;26497;52.494;7.546;2022-08-19T08:04:15;100699.00;;;38.56;26.50
40788;BME280;26497;52.494;7.546;2022-08-19T08:07:00;100695.59;;;39.22;26.36
40788;BME280;26497;52.494;7.546;2022-08-19T08:09:46;100696.72;;;39.36;25.79
40788;BME280;26497;52.494;7.546;2022-08-19T08:12:16;100705.97;;;38.90;26.44
40788;BME280;26497;52.494;7.546;2022-08-19T08:14:46;100715.81;;;38.38;27.41
40788;BME280;26497;52.494;7.546;2022-08-19T08:17:14;100710.31;;;38.61;26.61
40788;BME280;26497;52.494;7.546;2022-08-19T08:19:42;100707.53;;;38.38;26.50
40788;BME280;26497;52.494;7.546;2022-08-19T08:22:10;100716.81;;;38.13;27.29
40788;BME280;26497;52.494;7.546;2022-08-19T08:25:03;100726.03;;;38.75;26.31
40788;BME280;26497;52.494;7.546;2022-08-19T08:27:30;100712.97;;;38.92;26.10
40788;BME280;26497;52.494;7.546;2022-08-19T08:29:57;100719.75;;;40.10;25.61
40788;BME280;26497;52.494;7.546;2022-08-19T08:32:24;100715.25;;;41.18;23.66
40788;BME280;26497;52.494;7.546;2022-08-19T08:34:52;100725.97;;;40.77;23.38
40788;BME280;26497;52.494;7.546;2022-08-19T08:37:19;100723.19;;;40.55;24.24
40788;BME280;26497;52.494;7.546;2022-08-19T08:39:47;100723.84;;;41.58;22.82
40788;BME280;26497;52.494;7.546;2022-08-19T08:42:19;100723.94;;;42.54;21.18
40788;BME280;26497;52.494;7.546;2022-08-19T08:44:49;100725.88;;;43.00;20.33
40788;BME280;26497;52.494;7.546;2022-08-19T08:47:19;100724.97;;;43.47;20.04
40788;BME280;26497;52.494;7.546;2022-08-19T08:49:50;100716.00;;;44.11;19.51
40788;BME280;26497;52.494;7.546;2022-08-19T08:52:19;100726.66;;;45.03;18.77
40788;BME280;26497;52.494;7.546;2022-08-19T08:54:51;100727.28;;;45.24;17.96
40788;BME280;26497;52.494;7.546;2022-08-19T08:57:26;100727.09;;;44.50;18.85
40788;BME280;26497;52.494;7.546;2022-08-19T08:59:55;100718.13;;;44.73;18.71
40788;BME280;26497;52.494;7.546;2022-08-19T09:02:23;100719.44;;;44.38;19.32
40788;BME280;26497;52.494;7.546;2022-08-19T09:04:50;100714.06;;;44.43;18.57
40788;BME280;26497;52.494;7.546;2022-08-19T09:07:26;100715.22;;;43.90;19.51
40788;BME280;26497;52.494;7.546;2022-08-19T09:10:01;100716.84;;;44.11;19.28
40788;BME280;26497;52.494;7.546;2022-08-19T09:12:35;100713.19;;;44.43;19.62
40788;BME280;26497;52.494;7.546;2022-08-19T09:15:07;100713.75;;;44.58;18.52
40788;BME280;26497;52.494;7.546;2022-08-19T09:17:35;100719.19;;;44.40;19.08
40788;BME280;26497;52.494;7.546;2022-08-19T09:20:18;100713.69;;;43.94;18.98
40788;BME280;26497;52.494;7.546;2022-08-19T09:22:45;100717.47;;;43.68;18.99
40788;BME280;26497;52.494;7.546;2022-08-19T09:25:16;100723.75;;;43.95;19.06
40788;BME280;26497;52.494;7.546;2022-08-19T09:27:45;100728.78;;;44.51;17.79
40788;BME280;26497;52.494;7.546;2022-08-19T09:30:14;100730.28;;;44.14;18.04
40788;BME280;26497;52.494;7.546;2022-08-19T09:32:42;100728.25;;;43.89;18.53
40788;BME280;26497;52.494;7.546;2022-08-19T09:35:09;100723.84;;;42.13;20.10
40788;BME280;26497;52.494;7.546;2022-08-19T09:37:36;100725.44;;;41.46;21.58
40788;BME280;26497;52.494;7.546;2022-08-19T09:40:03;100726.84;;;41.35;21.65
40788;BME280;26497;52.494;7.546;2022-08-19T09:42:30;100728.59;;;42.33;21.21
40788;BME280;26497;52.494;7.546;2022-08-19T09:44:59;100725.19;;;42.31;20.42
40788;BME280;26497;52.494;7.546;2022-08-19T09:47:25;100715.41;;;42.76;19.51
40788;BME280;26497;52.494;7.546;2022-08-19T09:49:52;100720.75;;;42.50;19.62
40788;BME280;26497;52.494;7.546;2022-08-19T09:52:20;100726.59;;;42.07;19.92
40788;BME280;26497;52.494;7.546;2022-08-19T09:54:47;100724.41;;;42.84;19.30
40788;BME280;26497;52.494;7.546;2022-08-19T09:57:14;100718.63;;;42.72;19.27
40788;BME280;26497;52.494;7.546;2022-08-19T09:59:43;100723.28;;;41.83;19.44
40788;BME280;26497;52.494;7.546;2022-08-19T10:02:11;100724.56;;;41.80;19.61
40788;BME280;26497;52.494;7.546;2022-08-19T10:04:38;100724.81;;;41.50;20.38
40788;BME280;26497;52.494;7.546;2022-08-19T10:07:23;100721.84;;;41.52;20.18
40788;BME280;26497;52.494;7.546;2022-08-19T10:09:50;100713.81;;;42.06;20.13
40788;BME280;26497;52.494;7.546;2022-08-19T10:12:16;100704.06;;;43.44;17.30
40788;BME280;26497;52.494;7.546;2022-08-19T10:14:43;100708.22;;;44.19;17.18
40788;BME280;26497;52.494;7.546;2022-08-19T10:17:13;100707.47;;;43.46;18.12
40788;BME280;26497;52.494;7.546;2022-08-19T10:19:40;100704.19;;;43.77;18.04
40788;BME280;26497;52.494;7.546;2022-08-19T10:22:06;100700.91;;;43.07;18.62
40788;BME280;26497;52.494;7.546;2022-08-19T10:24:34;100700.94;;;43.00;18.93
40788;BME280;26497;52.494;7.546;2022-08-19T10:27:01;100704.53;;;42.54;19.03
40788;BME280;26497;52.494;7.546;2022-08-19T10:29:29;100703.69;;;42.47;18.88
40788;BME280;26497;52.494;7.546;2022-08-19T10:31:57;100709.13;;;42.06;19.28
40788;BME280;26497;52.494;7.546;2022-08-19T10:34:27;100710.72;;;41.38;19.63
40788;BME280;26497;52.494;7.546;2022-08-19T10:36:55;100706.75;;;39.89;20.40
40788;BME280;26497;52.494;7.546;2022-08-19T10:39:22;100703.25;;;40.17;20.97
40788;BME280;26497;52.494;7.546;2022-08-19T10:41:49;100701.75;;;40.79;20.76
40788;BME280;26497;52.494;7.546;2022-08-19T10:44:16;100696.94;;;41.52;20.79
40788;BME280;26497;52.494;7.546;2022-08-19T10:46:44;100700.28;;;42.78;19.12
40788;BME280;26497;52.494;7.546;2022-08-19T10:49:12;100695.84;;;42.91;18.84
40788;BME280;26497;52.494;7.546;2022-08-19T10:51:40;100701.25;;;42.10;19.00
40788;BME280;26497;52.494;7.546;2022-08-19T10:54:26;100699.25;;;41.41;19.65
40788;BME280;26497;52.494;7.546;2022-08-19T10:57:14;100699.16;;;41.63;19.70
40788;BME280;26497;52.494;7.546;2022-08-19T10:59:40;100693.00;;;40.97;20.85
40788;BME280;26497;52.494;7.546;2022-08-19T11:02:09;100686.97;;;40.87;21.01
40788;BME280;26497;52.494;7.546;2022-08-19T11:04:37;100694.38;;;41.15;20.24
40788;BME280;26497;52.494;7.546;2022-08-19T11:07:06;100695.94;;;40.09;21.50
40788;BME280;26497;52.494;7.546;2022-08-19T11:09:37;100693.66;;;39.61;22.03
40788;BME280;26497;52.494;7.546;2022-08-19T11:12:05;100693.75;;;40.41;21.32
40788;BME280;26497;52.494;7.546;2022-08-19T11:14:33;100690.28;;;40.32;21.99
40788;BME280;26497;52.494;7.546;2022-08-19T11:17:00;100687.78;;;40.88;21.24
40788;BME280;26497;52.494;7.546;2022-08-19T11:19:27;100685.81;;;41.38;20.72
40788;BME280;26497;52.494;7.546;2022-08-19T11:21:54;100691.34;;;41.74;19.43
40788;BME280;26497;52.494;7.546;2022-08-19T11:24:24;100685.16;;;41.78;19.82
40788;BME280;26497;52.494;7.546;2022-08-19T11:26:52;100682.75;;;41.62;20.18
40788;BME280;26497;52.494;7.546;2022-08-19T11:29:22;100685.44;;;41.48;19.88
40788;BME280;26497;52.494;7.546;2022-08-19T11:31:51;100681.09;;;42.43;19.70
40788;BME280;26497;52.494;7.546;2022-08-19T11:34:24;100685.81;;;42.83;19.64
40788;BME280;26497;52.494;7.546;2022-08-19T11:36:53;100679.34;;;42.28;18.97
40788;BME280;26497;52.494;7.546;2022-08-19T11:39:25;100687.53;;;41.81;19.79
40788;BME280;26497;52.494;7.546;2022-08-19T11:41:52;100685.00;;;40.81;21.00
40788;BME280;26497;52.494;7.546;2022-08-19T11:44:19;100686.84;;;40.30;21.25
40788;BME280;26497;52.494;7.546;2022-08-19T11:46:46;100680.53;;;39.63;21.64
40788;BME280;26497;52.494;7.546;2022-08-19T11:49:13;100680.50;;;38.88;23.22
40788;BME280;26497;52.494;7.546;2022-08-19T11:51:41;100677.94;;;38.78;22.65
40788;BME280;26497;52.494;7.546;2022-08-19T11:54:09;100676.22;;;39.15;22.19
40788;BME280;26497;52.494;7.546;2022-08-19T11:56:38;100672.91;;;39.65;22.34
40788;BME280;26497;52.494;7.546;2022-08-19T11:59:05;100676.50;;;40.17;21.31
40788;BME280;26497;52.494;7.546;2022-08-19T12:01:33;100676.59;;;39.87;21.08
40788;BME280;26497;52.494;7.546;2022-08-19T12:04:00;100670.38;;;40.22;21.47
40788;BME280;26497;52.494;7.546;2022-08-19T12:06:31;100666.41;;;39.73;21.08
40788;BME280;26497;52.494;7.546;2022-08-19T12:09:03;100671.22;;;39.34;22.43
40788;BME280;26497;52.494;7.546;2022-08-19T12:11:31;100668.03;;;39.82;21.59
40788;BME280;26497;52.494;7.546;2022-08-19T12:13:59;100664.28;;;40.70;20.90
40788;BME280;26497;52.494;7.546;2022-08-19T12:16:27;100665.56;;;41.66;19.82
40788;BME280;26497;52.494;7.546;2022-08-19T12:18:56;100650.63;;;42.90;18.65
40788;BME280;26497;52.494;7.546;2022-08-19T12:21:25;100656.53;;;43.07;17.77
40788;BME280;26497;52.494;7.546;2022-08-19T12:23:54;100655.75;;;42.59;17.19
40788;BME280;26497;52.494;7.546;2022-08-19T12:26:22;100661.16;;;41.08;18.71
40788;BME280;26497;52.494;7.546;2022-08-19T12:32:13;100654.47;;;41.66;18.80
40788;BME280;26497;52.494;7.546;2022-08-19T12:34:40;100644.00;;;42.78;18.38
40788;BME280;26497;52.494;7.546;2022-08-19T12:37:07;100635.88;;;44.01;17.08
40788;BME280;26497;52.494;7.546;2022-08-19T12:39:35;100643.63;;;44.56;16.99
40788;BME280;26497;52.494;7.546;2022-08-19T12:42:03;100644.72;;;43.91;16.83
40788;BME280;26497;52.494;7.546;2022-08-19T12:44:30;100636.00;;;43.22;18.05
40788;BME280;26497;52.494;7.546;2022-08-19T12:46:57;100627.28;;;43.31;17.13
40788;BME280;26497;52.494;7.546;2022-08-19T12:49:26;100631.41;;;42.95;17.05
40788;BME280;26497;52.494;7.546;2022-08-19T12:51:53;100635.91;;;42.49;17.34
40788;BME280;26497;52.494;7.546;2022-08-19T12:54:20;100630.97;;;42.24;18.20
40788;BME280;26497;52.494;7.546;2022-08-19T12:56:47;100638.31;;;43.45;18.00
40788;BME280;26497;52.494;7.546;2022-08-19T12:59:14;100636.03;;;43.81;16.99
40788;BME280;26497;52.494;7.546;2022-08-19T13:01:43;100633.13;;;42.83;17.66
40788;BME280;26497;52.494;7.546;2022-08-19T13:04:10;100624.16;;;42.13;18.67